sensor_id;sensor_type;location;lat;lon;timestamp;P1;durP1;ratioP1;P2;durP2;ratioP2
78079;SDS011;67298;51.322;5.958;2023-12-14T00:01:15;9.3;;;5.9;;
78079;SDS011;67298;51.322;5.958;2023-12-14T00:05:54;7.8;;;5.6;;
78079;SDS011;67298;51.322;5.958;2023-12-14T00:10:34;8.5;;;5.9;;
78079;SDS011;67298;51.322;5.958;2023-12-14T00:15:13;10.0;;;5.2;;
78079;SDS011;67298;51.322;5.958;2023-12-14T00:19:52;8.8;;;5.0;;
78079;SDS011;67298;51.322;5.958;2023-12-14T00:24:32;8.3;;;5.7;;
78079;SDS011;67298;51.322;5.958;2023-12-14T00:29:11;9.5;;;5.2;;
78079;SDS011;67298;51.322;5.958;2023-12-14T00:33:51;7.4;;;5.6;;
78079;SDS011;67298;51.322;5.958;2023-12-14T00:38:30;9.9;;;6.8;;
78079;SDS011;67298;51.322;5.958;2023-12-14T00:43:10;9.6;;;7.4;;
78079;SDS011;67298;51.322;5.958;2023-12-14T00:47:50;9.1;;;7.5;;
78079;SDS011;67298;51.322;5.958;2023-12-14T00:52:29;9.8;;;6.8;;
78079;SDS011;67298;51.322;5.958;2023-12-14T00:57:08;13.1;;;5.2;;
78079;SDS011;67298;51.322;5.958;2023-12-14T01:01:48;12.1;;;7.2;;
78079;SDS011;67298;51.322;5.958;2023-12-14T01:06:27;11.4;;;6.0;;
78079;SDS011;67298;51.322;5.958;2023-12-14T01:11:06;11.1;;;7.1;;
78079;SDS011;67298;51.322;5.958;2023-12-14T01:15:46;12.8;;;6.6;;
78079;SDS011;67298;51.322;5.958;2023-12-14T01:20:25;10.2;;;6.8;;
78079;SDS011;67298;51.322;5.958;2023-12-14T01:25:05;11.7;;;6.7;;
78079;SDS011;67298;51.322;5.958;2023-12-14T01:29:44;8.4;;;6.2;;
78079;SDS011;67298;51.322;5.958;2023-12-14T01:34:23;9.4;;;6.3;;
78079;SDS011;67298;51.322;5.958;2023-12-14T01:39:03;11.0;;;7.0;;
78079;SDS011;67298;51.322;5.958;2023-12-14T01:43:42;11.0;;;6.0;;
78079;SDS011;67298;51.322;5.958;2023-12-14T01:48:21;14.2;;;7.7;;
78079;SDS011;67298;51.322;5.958;2023-12-14T01:53:01;12.6;;;6.4;;
78079;SDS011;67298;51.322;5.958;2023-12-14T01:57:40;15.7;;;7.0;;
78079;SDS011;67298;51.322;5.958;2023-12-14T02:02:20;11.6;;;6.9;;
78079;SDS011;67298;51.322;5.958;2023-12-14T02:06:59;11.0;;;6.8;;
78079;SDS011;67298;51.322;5.958;2023-12-14T02:11:38;8.8;;;4.6;;
78079;SDS011;67298;51.322;5.958;2023-12-14T02:16:18;14.9;;;7.0;;
78079;SDS011;67298;51.322;5.958;2023-12-14T02:20:58;12.1;;;7.2;;
78079;SDS011;67298;51.322;5.958;2023-12-14T02:25:38;14.8;;;7.5;;
78079;SDS011;67298;51.322;5.958;2023-12-14T02:30:17;10.8;;;6.6;;
78079;SDS011;67298;51.322;5.958;2023-12-14T02:34:57;13.1;;;6.5;;
78079;SDS011;67298;51.322;5.958;2023-12-14T02:39:36;12.1;;;7.0;;
78079;SDS011;67298;51.322;5.958;2023-12-14T02:44:16;10.7;;;5.9;;
78079;SDS011;67298;51.322;5.958;2023-12-14T02:48:55;12.8;;;6.8;;
78079;SDS011;67298;51.322;5.958;2023-12-14T02:53:35;10.8;;;5.7;;
78079;SDS011;67298;51.322;5.958;2023-12-14T02:58:14;11.1;;;5.2;;
78079;SDS011;67298;51.322;5.958;2023-12-14T03:02:53;12.5;;;6.0;;
78079;SDS011;67298;51.322;5.958;2023-12-14T03:07:33;9.8;;;5.8;;
78079;SDS011;67298;51.322;5.958;2023-12-14T03:12:12;4.8;;;4.2;;
78079;SDS011;67298;51.322;5.958;2023-12-14T03:16:52;10.6;;;5.7;;
78079;SDS011;67298;51.322;5.958;2023-12-14T03:21:31;9.2;;;5.2;;
78079;SDS011;67298;51.322;5.958;2023-12-14T03:26:10;9.1;;;5.7;;
78079;SDS011;67298;51.322;5.958;2023-12-14T03:30:50;13.2;;;5.9;;
78079;SDS011;67298;51.322;5.958;2023-12-14T03:35:29;10.1;;;4.2;;
78079;SDS011;67298;51.322;5.958;2023-12-14T03:40:09;13.7;;;5.8;;
78079;SDS011;67298;51.322;5.958;2023-12-14T03:44:48;9.5;;;5.8;;
78079;SDS011;67298;51.322;5.958;2023-12-14T03:49:27;11.8;;;6.3;;
78079;SDS011;67298;51.322;5.958;2023-12-14T03:54:07;11.2;;;5.8;;
78079;SDS011;67298;51.322;5.958;2023-12-14T03:58:46;8.6;;;4.6;;
78079;SDS011;67298;51.322;5.958;2023-12-14T04:03:26;9.8;;;5.6;;
78079;SDS011;67298;51.322;5.958;2023-12-14T04:08:05;9.0;;;4.4;;
78079;SDS011;67298;51.322;5.958;2023-12-14T04:12:44;8.4;;;4.1;;
78079;SDS011;67298;51.322;5.958;2023-12-14T04:17:24;9.4;;;5.5;;
78079;SDS011;67298;51.322;5.958;2023-12-14T04:22:03;16.0;;;5.2;;
78079;SDS011;67298;51.322;5.958;2023-12-14T04:26:43;11.7;;;5.5;;
78079;SDS011;67298;51.322;5.958;2023-12-14T04:31:22;12.1;;;5.5;;
78079;SDS011;67298;51.322;5.958;2023-12-14T04:36:01;10.4;;;5.0;;
78079;SDS011;67298;51.322;5.958;2023-12-14T04:40:41;10.8;;;5.2;;
78079;SDS011;67298;51.322;5.958;2023-12-14T04:45:20;11.5;;;4.9;;
78079;SDS011;67298;51.322;5.958;2023-12-14T04:50:00;1.7;;;1.6;;
78079;SDS011;67298;51.322;5.958;2023-12-14T04:54:40;9.8;;;5.1;;
78079;SDS011;67298;51.322;5.958;2023-12-14T04:59:19;10.9;;;5.0;;
78079;SDS011;67298;51.322;5.958;2023-12-14T05:03:58;12.2;;;5.4;;
78079;SDS011;67298;51.322;5.958;2023-12-14T05:08:38;9.0;;;4.5;;
78079;SDS011;67298;51.322;5.958;2023-12-14T05:13:17;10.3;;;4.5;;
78079;SDS011;67298;51.322;5.958;2023-12-14T05:17:57;12.1;;;5.1;;
78079;SDS011;67298;51.322;5.958;2023-12-14T05:22:36;9.1;;;5.3;;
78079;SDS011;67298;51.322;5.958;2023-12-14T05:27:16;9.7;;;5.4;;
78079;SDS011;67298;51.322;5.958;2023-12-14T05:31:55;12.4;;;4.9;;
78079;SDS011;67298;51.322;5.958;2023-12-14T05:36:34;7.3;;;4.4;;
78079;SDS011;67298;51.322;5.958;2023-12-14T05:41:14;9.0;;;5.1;;
78079;SDS011;67298;51.322;5.958;2023-12-14T05:45:53;11.5;;;5.0;;
78079;SDS011;67298;51.322;5.958;2023-12-14T05:50:33;5.5;;;3.7;;
78079;SDS011;67298;51.322;5.958;2023-12-14T05:55:12;10.9;;;4.9;;
78079;SDS011;67298;51.322;5.958;2023-12-14T05:59:52;8.4;;;4.3;;
78079;SDS011;67298;51.322;5.958;2023-12-14T06:04:31;12.1;;;5.2;;
78079;SDS011;67298;51.322;5.958;2023-12-14T06:09:11;12.0;;;5.0;;
78079;SDS011;67298;51.322;5.958;2023-12-14T06:13:50;10.3;;;3.8;;
78079;SDS011;67298;51.322;5.958;2023-12-14T06:18:29;9.9;;;5.2;;
78079;SDS011;67298;51.322;5.958;2023-12-14T06:23:09;10.0;;;4.9;;
78079;SDS011;67298;51.322;5.958;2023-12-14T06:27:48;11.6;;;5.3;;
78079;SDS011;67298;51.322;5.958;2023-12-14T06:32:27;10.8;;;4.9;;
78079;SDS011;67298;51.322;5.958;2023-12-14T06:37:07;10.0;;;5.6;;
78079;SDS011;67298;51.322;5.958;2023-12-14T06:41:46;12.6;;;5.8;;
78079;SDS011;67298;51.322;5.958;2023-12-14T06:46:26;12.3;;;4.9;;
78079;SDS011;67298;51.322;5.958;2023-12-14T06:51:05;3.7;;;3.4;;
78079;SDS011;67298;51.322;5.958;2023-12-14T06:55:45;11.4;;;5.8;;
78079;SDS011;67298;51.322;5.958;2023-12-14T07:00:24;10.4;;;5.1;;
78079;SDS011;67298;51.322;5.958;2023-12-14T07:05:03;10.8;;;5.5;;
78079;SDS011;67298;51.322;5.958;2023-12-14T07:09:44;12.0;;;5.1;;
78079;SDS011;67298;51.322;5.958;2023-12-14T07:14:23;14.8;;;5.6;;
78079;SDS011;67298;51.322;5.958;2023-12-14T07:19:03;11.6;;;5.5;;
78079;SDS011;67298;51.322;5.958;2023-12-14T07:23:42;7.5;;;4.1;;
78079;SDS011;67298;51.322;5.958;2023-12-14T07:28:22;2.1;;;1.9;;
78079;SDS011;67298;51.322;5.958;2023-12-14T07:33:01;10.4;;;4.2;;
78079;SDS011;67298;51.322;5.958;2023-12-14T07:37:40;8.9;;;4.8;;
78079;SDS011;67298;51.322;5.958;2023-12-14T07:42:20;10.2;;;4.9;;
78079;SDS011;67298;51.322;5.958;2023-12-14T07:46:59;7.1;;;4.2;;
78079;SDS011;67298;51.322;5.958;2023-12-14T07:51:39;4.5;;;3.4;;
78079;SDS011;67298;51.322;5.958;2023-12-14T07:56:18;7.4;;;4.3;;
78079;SDS011;67298;51.322;5.958;2023-12-14T08:00:58;10.4;;;4.7;;
78079;SDS011;67298;51.322;5.958;2023-12-14T08:05:37;10.1;;;4.4;;
78079;SDS011;67298;51.322;5.958;2023-12-14T08:10:17;7.8;;;4.1;;
78079;SDS011;67298;51.322;5.958;2023-12-14T08:14:56;7.1;;;4.6;;
78079;SDS011;67298;51.322;5.958;2023-12-14T08:19:36;8.8;;;4.5;;
78079;SDS011;67298;51.322;5.958;2023-12-14T08:24:15;9.5;;;4.6;;
78079;SDS011;67298;51.322;5.958;2023-12-14T08:28:55;20.1;;;4.1;;
78079;SDS011;67298;51.322;5.958;2023-12-14T08:33:34;7.0;;;3.9;;
78079;SDS011;67298;51.322;5.958;2023-12-14T08:38:13;7.5;;;3.7;;
78079;SDS011;67298;51.322;5.958;2023-12-14T08:42:53;8.8;;;4.2;;
78079;SDS011;67298;51.322;5.958;2023-12-14T08:47:32;8.3;;;4.5;;
78079;SDS011;67298;51.322;5.958;2023-12-14T08:52:12;6.8;;;3.7;;
78079;SDS011;67298;51.322;5.958;2023-12-14T08:56:51;7.9;;;3.8;;
78079;SDS011;67298;51.322;5.958;2023-12-14T09:01:30;7.2;;;3.6;;
78079;SDS011;67298;51.322;5.958;2023-12-14T09:06:10;6.9;;;4.3;;
78079;SDS011;67298;51.322;5.958;2023-12-14T09:10:49;10.7;;;4.3;;
78079;SDS011;67298;51.322;5.958;2023-12-14T09:15:29;5.8;;;3.0;;
78079;SDS011;67298;51.322;5.958;2023-12-14T09:20:08;4.6;;;2.9;;
78079;SDS011;67298;51.322;5.958;2023-12-14T09:24:48;6.2;;;3.6;;
78079;SDS011;67298;51.322;5.958;2023-12-14T09:29:27;2.7;;;2.5;;
78079;SDS011;67298;51.322;5.958;2023-12-14T09:34:06;6.5;;;4.0;;
78079;SDS011;67298;51.322;5.958;2023-12-14T09:38:46;5.5;;;3.6;;
78079;SDS011;67298;51.322;5.958;2023-12-14T09:43:25;6.6;;;3.5;;
78079;SDS011;67298;51.322;5.958;2023-12-14T09:48:04;6.8;;;3.9;;
78079;SDS011;67298;51.322;5.958;2023-12-14T09:52:44;6.1;;;3.3;;
78079;SDS011;67298;51.322;5.958;2023-12-14T09:57:23;6.7;;;4.0;;
78079;SDS011;67298;51.322;5.958;2023-12-14T10:02:03;8.0;;;3.3;;
78079;SDS011;67298;51.322;5.958;2023-12-14T10:06:42;1.0;;;1.0;;
78079;SDS011;67298;51.322;5.958;2023-12-14T10:11:21;6.1;;;2.8;;
78079;SDS011;67298;51.322;5.958;2023-12-14T10:16:01;7.4;;;3.6;;
78079;SDS011;67298;51.322;5.958;2023-12-14T10:20:41;7.2;;;4.1;;
78079;SDS011;67298;51.322;5.958;2023-12-14T10:25:21;7.5;;;3.5;;
78079;SDS011;67298;51.322;5.958;2023-12-14T10:30:00;4.7;;;3.6;;
78079;SDS011;67298;51.322;5.958;2023-12-14T10:34:40;6.4;;;3.7;;
78079;SDS011;67298;51.322;5.958;2023-12-14T10:39:19;6.3;;;2.9;;
78079;SDS011;67298;51.322;5.958;2023-12-14T10:43:59;7.3;;;3.5;;
78079;SDS011;67298;51.322;5.958;2023-12-14T10:48:38;6.3;;;3.6;;
78079;SDS011;67298;51.322;5.958;2023-12-14T10:53:18;2.9;;;2.7;;
78079;SDS011;67298;51.322;5.958;2023-12-14T10:57:58;6.9;;;3.5;;
78079;SDS011;67298;51.322;5.958;2023-12-14T11:02:37;7.7;;;3.0;;
78079;SDS011;67298;51.322;5.958;2023-12-14T11:07:17;1.8;;;1.4;;
78079;SDS011;67298;51.322;5.958;2023-12-14T11:11:56;3.6;;;2.2;;
78079;SDS011;67298;51.322;5.958;2023-12-14T11:16:37;4.9;;;2.7;;
78079;SDS011;67298;51.322;5.958;2023-12-14T11:21:17;7.0;;;3.4;;
78079;SDS011;67298;51.322;5.958;2023-12-14T11:25:57;6.9;;;3.4;;
78079;SDS011;67298;51.322;5.958;2023-12-14T11:30:37;6.5;;;2.8;;
78079;SDS011;67298;51.322;5.958;2023-12-14T11:35:16;5.6;;;2.9;;
78079;SDS011;67298;51.322;5.958;2023-12-14T11:39:56;6.5;;;2.9;;
78079;SDS011;67298;51.322;5.958;2023-12-14T11:44:36;7.2;;;3.4;;
78079;SDS011;67298;51.322;5.958;2023-12-14T11:49:15;6.2;;;3.2;;
78079;SDS011;67298;51.322;5.958;2023-12-14T11:53:56;6.3;;;4.2;;
78079;SDS011;67298;51.322;5.958;2023-12-14T11:58:35;4.8;;;3.2;;
78079;SDS011;67298;51.322;5.958;2023-12-14T12:03:18;4.9;;;3.2;;
78079;SDS011;67298;51.322;5.958;2023-12-14T12:07:58;4.4;;;2.5;;
78079;SDS011;67298;51.322;5.958;2023-12-14T12:12:38;4.8;;;3.5;;
78079;SDS011;67298;51.322;5.958;2023-12-14T12:17:34;6.6;;;3.8;;
78079;SDS011;67298;51.322;5.958;2023-12-14T12:22:14;7.7;;;3.9;;
78079;SDS011;67298;51.322;5.958;2023-12-14T12:26:57;7.5;;;3.0;;
78079;SDS011;67298;51.322;5.958;2023-12-14T12:31:37;2.2;;;1.9;;
78079;SDS011;67298;51.322;5.958;2023-12-14T12:36:16;6.1;;;4.0;;
78079;SDS011;67298;51.322;5.958;2023-12-14T12:40:56;6.3;;;3.2;;
78079;SDS011;67298;51.322;5.958;2023-12-14T12:45:35;6.1;;;2.8;;
78079;SDS011;67298;51.322;5.958;2023-12-14T12:50:15;7.9;;;3.6;;
78079;SDS011;67298;51.322;5.958;2023-12-14T12:54:54;5.5;;;3.1;;
78079;SDS011;67298;51.322;5.958;2023-12-14T12:59:33;6.1;;;3.4;;
78079;SDS011;67298;51.322;5.958;2023-12-14T13:04:13;7.7;;;3.7;;
78079;SDS011;67298;51.322;5.958;2023-12-14T13:08:52;5.6;;;2.3;;
78079;SDS011;67298;51.322;5.958;2023-12-14T13:13:32;5.3;;;3.2;;
78079;SDS011;67298;51.322;5.958;2023-12-14T13:18:11;6.3;;;3.2;;
78079;SDS011;67298;51.322;5.958;2023-12-14T13:22:50;6.2;;;3.4;;
78079;SDS011;67298;51.322;5.958;2023-12-14T13:27:30;9.2;;;3.1;;
78079;SDS011;67298;51.322;5.958;2023-12-14T13:32:09;5.8;;;3.7;;
78079;SDS011;67298;51.322;5.958;2023-12-14T13:36:48;8.8;;;3.9;;
78079;SDS011;67298;51.322;5.958;2023-12-14T13:41:28;6.0;;;3.5;;
78079;SDS011;67298;51.322;5.958;2023-12-14T13:46:07;3.0;;;1.7;;
78079;SDS011;67298;51.322;5.958;2023-12-14T13:50:47;6.9;;;3.8;;
78079;SDS011;67298;51.322;5.958;2023-12-14T13:55:26;9.0;;;3.5;;
78079;SDS011;67298;51.322;5.958;2023-12-14T14:00:06;8.1;;;3.8;;
78079;SDS011;67298;51.322;5.958;2023-12-14T14:04:45;9.4;;;3.7;;
78079;SDS011;67298;51.322;5.958;2023-12-14T14:09:25;6.0;;;2.9;;
78079;SDS011;67298;51.322;5.958;2023-12-14T14:14:04;6.2;;;3.5;;
78079;SDS011;67298;51.322;5.958;2023-12-14T14:18:44;4.0;;;3.2;;
78079;SDS011;67298;51.322;5.958;2023-12-14T14:23:23;6.3;;;3.7;;
78079;SDS011;67298;51.322;5.958;2023-12-14T14:28:03;6.4;;;3.8;;
78079;SDS011;67298;51.322;5.958;2023-12-14T14:32:42;5.6;;;3.2;;
78079;SDS011;67298;51.322;5.958;2023-12-14T14:37:22;7.7;;;3.6;;
78079;SDS011;67298;51.322;5.958;2023-12-14T14:42:01;6.4;;;4.1;;
78079;SDS011;67298;51.322;5.958;2023-12-14T14:46:40;5.9;;;5.4;;
78079;SDS011;67298;51.322;5.958;2023-12-14T14:51:20;6.6;;;3.8;;
78079;SDS011;67298;51.322;5.958;2023-12-14T14:55:59;4.9;;;2.9;;
78079;SDS011;67298;51.322;5.958;2023-12-14T15:00:39;5.7;;;3.7;;
78079;SDS011;67298;51.322;5.958;2023-12-14T15:05:18;7.0;;;3.5;;
78079;SDS011;67298;51.322;5.958;2023-12-14T15:09:58;6.5;;;3.6;;
78079;SDS011;67298;51.322;5.958;2023-12-14T15:14:38;6.9;;;4.4;;
78079;SDS011;67298;51.322;5.958;2023-12-14T15:19:17;5.9;;;3.1;;
78079;SDS011;67298;51.322;5.958;2023-12-14T15:23:56;2.9;;;1.9;;
78079;SDS011;67298;51.322;5.958;2023-12-14T15:28:36;7.3;;;3.8;;
78079;SDS011;67298;51.322;5.958;2023-12-14T15:33:15;6.4;;;5.0;;
78079;SDS011;67298;51.322;5.958;2023-12-14T15:37:55;7.7;;;4.6;;
78079;SDS011;67298;51.322;5.958;2023-12-14T15:42:34;7.6;;;3.3;;
78079;SDS011;67298;51.322;5.958;2023-12-14T15:47:14;5.3;;;4.6;;
78079;SDS011;67298;51.322;5.958;2023-12-14T15:51:53;9.1;;;4.5;;
78079;SDS011;67298;51.322;5.958;2023-12-14T15:56:32;9.6;;;3.5;;
78079;SDS011;67298;51.322;5.958;2023-12-14T16:01:12;8.9;;;4.8;;
78079;SDS011;67298;51.322;5.958;2023-12-14T16:05:52;5.6;;;3.4;;
78079;SDS011;67298;51.322;5.958;2023-12-14T16:10:31;5.8;;;3.7;;
78079;SDS011;67298;51.322;5.958;2023-12-14T16:15:11;5.8;;;4.0;;
78079;SDS011;67298;51.322;5.958;2023-12-14T16:19:50;6.4;;;3.7;;
78079;SDS011;67298;51.322;5.958;2023-12-14T16:24:30;4.3;;;3.9;;
78079;SDS011;67298;51.322;5.958;2023-12-14T16:29:09;5.3;;;3.8;;
78079;SDS011;67298;51.322;5.958;2023-12-14T16:33:48;10.5;;;4.2;;
78079;SDS011;67298;51.322;5.958;2023-12-14T16:38:28;8.5;;;4.6;;
78079;SDS011;67298;51.322;5.958;2023-12-14T16:43:07;7.3;;;3.7;;
78079;SDS011;67298;51.322;5.958;2023-12-14T16:47:47;6.4;;;3.7;;
78079;SDS011;67298;51.322;5.958;2023-12-14T16:52:26;8.0;;;4.7;;
78079;SDS011;67298;51.322;5.958;2023-12-14T16:57:05;9.5;;;4.6;;
78079;SDS011;67298;51.322;5.958;2023-12-14T17:01:45;10.9;;;4.7;;
78079;SDS011;67298;51.322;5.958;2023-12-14T17:06:24;9.6;;;4.1;;
78079;SDS011;67298;51.322;5.958;2023-12-14T17:11:04;7.9;;;4.8;;
78079;SDS011;67298;51.322;5.958;2023-12-14T17:15:43;8.1;;;4.6;;
78079;SDS011;67298;51.322;5.958;2023-12-14T17:20:22;9.2;;;3.7;;
78079;SDS011;67298;51.322;5.958;2023-12-14T17:25:02;9.3;;;5.2;;
78079;SDS011;67298;51.322;5.958;2023-12-14T17:29:41;7.1;;;4.4;;
78079;SDS011;67298;51.322;5.958;2023-12-14T17:34:21;2.5;;;2.0;;
78079;SDS011;67298;51.322;5.958;2023-12-14T17:39:01;7.2;;;4.0;;
78079;SDS011;67298;51.322;5.958;2023-12-14T17:43:40;7.0;;;4.2;;
78079;SDS011;67298;51.322;5.958;2023-12-14T17:48:20;14.2;;;4.7;;
78079;SDS011;67298;51.322;5.958;2023-12-14T17:52:59;9.8;;;4.6;;
78079;SDS011;67298;51.322;5.958;2023-12-14T17:57:38;5.8;;;4.1;;
78079;SDS011;67298;51.322;5.958;2023-12-14T18:02:18;0.1;;;0.1;;
78079;SDS011;67298;51.322;5.958;2023-12-14T18:06:57;7.5;;;3.6;;
78079;SDS011;67298;51.322;5.958;2023-12-14T18:11:37;7.5;;;3.8;;
78079;SDS011;67298;51.322;5.958;2023-12-14T18:16:16;9.2;;;4.3;;
78079;SDS011;67298;51.322;5.958;2023-12-14T18:20:55;6.5;;;3.9;;
78079;SDS011;67298;51.322;5.958;2023-12-14T18:25:35;4.8;;;3.4;;
78079;SDS011;67298;51.322;5.958;2023-12-14T18:30:14;7.7;;;4.0;;
78079;SDS011;67298;51.322;5.958;2023-12-14T18:34:53;5.9;;;3.4;;
78079;SDS011;67298;51.322;5.958;2023-12-14T18:39:33;8.6;;;4.4;;
78079;SDS011;67298;51.322;5.958;2023-12-14T18:44:12;5.4;;;4.1;;
78079;SDS011;67298;51.322;5.958;2023-12-14T18:48:52;3.1;;;2.3;;
78079;SDS011;67298;51.322;5.958;2023-12-14T18:53:31;5.3;;;3.5;;
78079;SDS011;67298;51.322;5.958;2023-12-14T18:58:10;7.5;;;3.6;;
78079;SDS011;67298;51.322;5.958;2023-12-14T19:02:50;3.1;;;2.8;;
78079;SDS011;67298;51.322;5.958;2023-12-14T19:07:29;6.9;;;4.2;;
78079;SDS011;67298;51.322;5.958;2023-12-14T19:12:08;7.2;;;4.0;;
78079;SDS011;67298;51.322;5.958;2023-12-14T19:16:48;6.6;;;4.1;;
78079;SDS011;67298;51.322;5.958;2023-12-14T19:21:27;7.3;;;3.9;;
78079;SDS011;67298;51.322;5.958;2023-12-14T19:26:07;9.7;;;4.3;;
78079;SDS011;67298;51.322;5.958;2023-12-14T19:30:46;6.5;;;3.9;;
78079;SDS011;67298;51.322;5.958;2023-12-14T19:35:26;4.2;;;2.8;;
78079;SDS011;67298;51.322;5.958;2023-12-14T19:40:05;5.5;;;3.7;;
78079;SDS011;67298;51.322;5.958;2023-12-14T19:44:44;9.7;;;3.8;;
78079;SDS011;67298;51.322;5.958;2023-12-14T19:49:24;8.8;;;4.0;;
78079;SDS011;67298;51.322;5.958;2023-12-14T19:54:03;8.1;;;3.9;;
78079;SDS011;67298;51.322;5.958;2023-12-14T19:58:42;5.1;;;2.6;;
78079;SDS011;67298;51.322;5.958;2023-12-14T20:03:22;8.0;;;2.9;;
78079;SDS011;67298;51.322;5.958;2023-12-14T20:08:01;5.1;;;3.3;;
78079;SDS011;67298;51.322;5.958;2023-12-14T20:12:41;4.5;;;2.6;;
78079;SDS011;67298;51.322;5.958;2023-12-14T20:17:20;5.9;;;3.1;;
78079;SDS011;67298;51.322;5.958;2023-12-14T20:22:00;5.2;;;3.3;;
78079;SDS011;67298;51.322;5.958;2023-12-14T20:26:39;4.2;;;2.9;;
78079;SDS011;67298;51.322;5.958;2023-12-14T20:31:19;7.3;;;3.4;;
78079;SDS011;67298;51.322;5.958;2023-12-14T20:35:58;2.3;;;1.3;;
78079;SDS011;67298;51.322;5.958;2023-12-14T20:40:38;3.5;;;1.1;;
78079;SDS011;67298;51.322;5.958;2023-12-14T20:45:17;5.8;;;3.1;;
78079;SDS011;67298;51.322;5.958;2023-12-14T20:49:57;5.2;;;1.4;;
78079;SDS011;67298;51.322;5.958;2023-12-14T20:54:37;5.3;;;2.1;;
78079;SDS011;67298;51.322;5.958;2023-12-14T20:59:16;5.1;;;3.2;;
78079;SDS011;67298;51.322;5.958;2023-12-14T21:03:56;0.2;;;0.2;;
78079;SDS011;67298;51.322;5.958;2023-12-14T21:08:35;4.8;;;2.7;;
78079;SDS011;67298;51.322;5.958;2023-12-14T21:13:14;2.8;;;2.5;;
78079;SDS011;67298;51.322;5.958;2023-12-14T21:17:54;4.2;;;2.6;;
78079;SDS011;67298;51.322;5.958;2023-12-14T21:22:34;3.7;;;1.8;;
78079;SDS011;67298;51.322;5.958;2023-12-14T21:27:13;8.2;;;2.8;;
78079;SDS011;67298;51.322;5.958;2023-12-14T21:31:52;7.3;;;3.3;;
78079;SDS011;67298;51.322;5.958;2023-12-14T21:36:32;4.2;;;2.8;;
78079;SDS011;67298;51.322;5.958;2023-12-14T21:41:11;1.7;;;1.4;;
78079;SDS011;67298;51.322;5.958;2023-12-14T21:45:50;2.5;;;1.2;;
78079;SDS011;67298;51.322;5.958;2023-12-14T21:50:30;4.1;;;2.9;;
78079;SDS011;67298;51.322;5.958;2023-12-14T21:55:09;6.1;;;2.7;;
78079;SDS011;67298;51.322;5.958;2023-12-14T21:59:49;2.8;;;1.5;;
78079;SDS011;67298;51.322;5.958;2023-12-14T22:04:28;2.6;;;1.4;;
78079;SDS011;67298;51.322;5.958;2023-12-14T22:09:07;3.8;;;2.3;;
78079;SDS011;67298;51.322;5.958;2023-12-14T22:13:47;1.7;;;1.4;;
78079;SDS011;67298;51.322;5.958;2023-12-14T22:18:26;2.9;;;1.6;;
78079;SDS011;67298;51.322;5.958;2023-12-14T22:23:06;5.4;;;1.8;;
78079;SDS011;67298;51.322;5.958;2023-12-14T22:27:45;5.0;;;2.1;;
78079;SDS011;67298;51.322;5.958;2023-12-14T22:32:24;3.6;;;2.0;;
78079;SDS011;67298;51.322;5.958;2023-12-14T22:37:04;4.6;;;1.9;;
78079;SDS011;67298;51.322;5.958;2023-12-14T22:41:43;1.6;;;1.2;;
78079;SDS011;67298;51.322;5.958;2023-12-14T22:46:24;2.1;;;1.8;;
78079;SDS011;67298;51.322;5.958;2023-12-14T22:51:03;6.8;;;2.3;;
78079;SDS011;67298;51.322;5.958;2023-12-14T22:55:42;4.6;;;2.2;;
78079;SDS011;67298;51.322;5.958;2023-12-14T23:00:22;3.1;;;1.9;;
78079;SDS011;67298;51.322;5.958;2023-12-14T23:05:01;2.9;;;2.6;;
78079;SDS011;67298;51.322;5.958;2023-12-14T23:09:41;3.4;;;1.7;;
78079;SDS011;67298;51.322;5.958;2023-12-14T23:14:20;2.2;;;1.8;;
78079;SDS011;67298;51.322;5.958;2023-12-14T23:19:00;0.2;;;0.2;;
78079;SDS011;67298;51.322;5.958;2023-12-14T23:23:39;2.7;;;1.5;;
78079;SDS011;67298;51.322;5.958;2023-12-14T23:28:18;3.4;;;1.2;;
78079;SDS011;67298;51.322;5.958;2023-12-14T23:32:58;4.4;;;1.8;;
78079;SDS011;67298;51.322;5.958;2023-12-14T23:37:37;3.3;;;1.4;;
78079;SDS011;67298;51.322;5.958;2023-12-14T23:42:17;0.7;;;0.7;;
78079;SDS011;67298;51.322;5.958;2023-12-14T23:46:56;2.0;;;1.5;;
78079;SDS011;67298;51.322;5.958;2023-12-14T23:51:36;2.9;;;1.8;;
78079;SDS011;67298;51.322;5.958;2023-12-14T23:56:15;2.7;;;1.8;;
